CheckWX is a tool to help pilots better visualize weather data.  It is not intended as a substitute for an official pre-flight weather briefing.

12:24:17 UTC

UKWW TAF
Vinnytsia / Gavyryshivka Airport
Vinnitsa, Ukraine
TAF UKWW 221110Z 2212/2221 28008G13MPS 9999 BKN030 TEMPO 2212/2218 30012G17MPS 2100 -SHRA BKN005 BKN015CB

Mar-22@
12:00 UTC

Mar-22 @ 12:00 UTC

Mar-22@
21:00 UTC

Mar-22 @ 21:00 UTC

TAF UKWW 221110Z 2212/2221 28008G13MPS 9999 BKN030
Wind
  • 280° at 16 KTS
  • {Gusting to 25 KTS
Cloud Levels
  • Broken at 3,000' AGL

Mar-22@
12:00 UTC

Mar-22 @ 12:00 UTC

Mar-22@
18:00 UTC

Mar-22 @ 18:00 UTC

TEMPO 2212/2218 30012G17MPS 2100 -SHRA BKN005 BKN015CB

Temporary

Temporary Changes expected for less than half the time period

Wind
  • 300° at 23 KTS
  • {Gusting to 33 KTS
Conditions
Light Rain
Cloud Levels
  • Broken at 500' AGL
  • Broken at 1,500' AGL